createdAt,value
2022-12-01T00:00:26.629Z,102341.97
2022-12-01T00:02:48.960Z,102323.72
2022-12-01T00:05:11.370Z,102334.63
2022-12-01T00:07:33.710Z,102331.91
2022-12-01T00:10:14.587Z,102329.34
2022-12-01T00:12:43.487Z,102328.28
2022-12-01T00:15:06.280Z,102328.66
2022-12-01T00:17:30.209Z,102318.47
2022-12-01T00:19:52.490Z,102326.78
2022-12-01T00:22:14.850Z,102322.81
2022-12-01T00:24:37.121Z,102324.94
2022-12-01T00:26:59.444Z,102318.22
2022-12-01T00:29:21.731Z,102322.81
2022-12-01T00:31:44.082Z,102317.56
2022-12-01T00:34:11.028Z,102321.34
2022-12-01T00:36:33.877Z,102316.28
2022-12-01T00:38:56.395Z,102325.28
2022-12-01T00:41:18.792Z,102321.94
2022-12-01T00:43:41.142Z,102317.72
2022-12-01T00:46:03.809Z,102313.94
2022-12-01T00:48:26.223Z,102323.41
2022-12-01T00:50:50.117Z,102315.97
2022-12-01T00:53:12.430Z,102315.75
2022-12-01T00:55:34.740Z,102309.69
2022-12-01T00:57:57.043Z,102306.34
2022-12-01T01:00:19.622Z,102310.97
2022-12-01T01:02:42.010Z,102309.09
2022-12-01T01:05:04.507Z,102317.06
2022-12-01T01:07:26.892Z,102306.59
2022-12-01T01:09:49.425Z,102306.16
2022-12-01T01:12:11.865Z,102307.59
2022-12-01T01:14:34.237Z,102307.78
2022-12-01T01:16:56.622Z,102311.81
2022-12-01T01:19:18.975Z,102310.59
2022-12-01T01:21:41.353Z,102314.97
2022-12-01T01:24:03.870Z,102314.59
2022-12-01T01:26:29.531Z,102309.16
2022-12-01T01:28:52.096Z,102310.44
2022-12-01T01:31:17.967Z,102309.97
2022-12-01T01:33:40.375Z,102309.53
2022-12-01T01:36:02.873Z,102309.16
2022-12-01T01:38:25.208Z,102312.94
2022-12-01T01:40:47.528Z,102316.28
2022-12-01T01:43:17.672Z,102316.66
2022-12-01T01:45:39.994Z,102310.97
2022-12-01T01:48:03.775Z,102315.44
2022-12-01T01:50:27.298Z,102313.31
2022-12-01T01:53:03.439Z,102304.06
2022-12-01T01:55:25.746Z,102302.34
2022-12-01T01:57:48.076Z,102302.72
2022-12-01T02:00:16.402Z,102307.13
2022-12-01T02:02:43.558Z,102302.28
2022-12-01T02:05:11.097Z,102304.78
2022-12-01T02:07:33.575Z,102303.25
2022-12-01T02:09:56.210Z,102301.75
2022-12-01T02:12:24.066Z,102302.84
2022-12-01T02:15:14.208Z,102308.66
2022-12-01T02:18:02.408Z,102304.88
2022-12-01T02:20:38.985Z,102311.84
2022-12-01T02:23:44.492Z,102314.09
2022-12-01T02:26:50.190Z,102309.72
2022-12-01T02:29:38.406Z,102308.66
2022-12-01T02:32:02.037Z,102313.06
2022-12-01T02:34:54.318Z,102306.56
2022-12-01T02:37:47.700Z,102307.22
2022-12-01T02:40:30.507Z,102311.38
2022-12-01T02:43:30.332Z,102311.63
2022-12-01T02:46:00.525Z,102308.91
2022-12-01T02:48:34.299Z,102313.13
2022-12-01T02:50:58.910Z,102309.34
2022-12-01T02:53:21.604Z,102306.78
2022-12-01T02:55:52.852Z,102307.00
2022-12-01T02:58:15.344Z,102311.78
2022-12-01T03:00:37.617Z,102307.59
2022-12-01T03:03:11.933Z,102305.94
2022-12-01T03:05:52.068Z,102308.19
2022-12-01T03:08:35.590Z,102297.75
2022-12-01T03:10:58.292Z,102303.81
2022-12-01T03:13:51.515Z,102306.38
2022-12-01T03:16:40.424Z,102306.38
2022-12-01T03:19:32.722Z,102293.19
2022-12-01T03:22:01.938Z,102301.75
2022-12-01T03:24:25.700Z,102295.94
2022-12-01T03:26:51.897Z,102301.38
2022-12-01T03:29:18.039Z,102295.53
2022-12-01T03:31:45.809Z,102301.81
2022-12-01T03:34:14.261Z,102301.38
2022-12-01T03:36:41.119Z,102303.25
2022-12-01T03:39:07.091Z,102311.44
2022-12-01T03:41:35.491Z,102310.25
2022-12-01T03:44:08.942Z,102303.38
2022-12-01T03:46:56.891Z,102302.66
2022-12-01T03:49:19.212Z,102294.94
2022-12-01T03:51:50.624Z,102298.25
2022-12-01T03:54:21.554Z,102299.94
2022-12-01T03:56:51.205Z,102301.81
2022-12-01T03:59:13.473Z,102302.22
2022-12-01T04:01:35.893Z,102296.63
2022-12-01T04:04:08.016Z,102290.09
2022-12-01T04:06:30.300Z,102299.28
2022-12-01T04:08:52.592Z,102298.19
2022-12-01T04:11:35.123Z,102290.84
2022-12-01T04:13:57.416Z,102285.66
2022-12-01T04:16:19.787Z,102285.84
2022-12-01T04:18:42.097Z,102280.41
2022-12-01T04:21:04.580Z,102275.34
2022-12-01T04:23:45.658Z,102285.03
2022-12-01T04:26:12.641Z,102274.94
2022-12-01T04:28:37.944Z,102285.41
2022-12-01T04:31:00.333Z,102280.78
2022-12-01T04:33:22.685Z,102280.13
2022-12-01T04:35:44.956Z,102278.00
2022-12-01T04:38:07.264Z,102276.09
2022-12-01T04:40:29.543Z,102276.25
2022-12-01T04:42:51.819Z,102281.50
2022-12-01T04:45:14.142Z,102278.97
2022-12-01T04:47:36.446Z,102285.72
2022-12-01T04:49:58.816Z,102281.31
2022-12-01T04:52:21.107Z,102293.25
2022-12-01T04:54:43.396Z,102288.59
2022-12-01T04:57:05.782Z,102295.34
2022-12-01T04:59:28.058Z,102296.78
2022-12-01T05:01:50.528Z,102300.34
2022-12-01T05:04:13.565Z,102290.88
2022-12-01T05:06:35.945Z,102294.44
2022-12-01T05:08:59.972Z,102292.31
2022-12-01T05:11:23.812Z,102288.13
2022-12-01T05:13:47.297Z,102291.69
2022-12-01T05:16:24.217Z,102283.53
2022-12-01T05:18:50.886Z,102293.38
2022-12-01T05:21:13.190Z,102290.41
2022-12-01T05:23:37.039Z,102286.03
2022-12-01T05:25:59.463Z,102292.31
2022-12-01T05:28:23.229Z,102285.34
2022-12-01T05:30:45.554Z,102287.84
2022-12-01T05:33:07.920Z,102289.53
2022-12-01T05:35:30.267Z,102289.75
2022-12-01T05:37:52.585Z,102289.53
2022-12-01T05:40:14.932Z,102288.81
2022-12-01T05:42:37.242Z,102295.34
2022-12-01T05:44:59.516Z,102297.41
2022-12-01T05:47:21.802Z,102287.53
2022-12-01T05:49:44.094Z,102293.22
2022-12-01T05:52:06.402Z,102289.66
2022-12-01T05:54:30.486Z,102297.00
2022-12-01T05:56:52.811Z,102292.16
2022-12-01T05:59:15.116Z,102293.38
2022-12-01T06:01:37.431Z,102289.81
2022-12-01T06:03:59.817Z,102294.41
2022-12-01T06:06:22.447Z,102298.22
2022-12-01T06:08:44.721Z,102302.59
2022-12-01T06:11:07.046Z,102298.06
2022-12-01T06:13:29.338Z,102308.97
2022-12-01T06:16:03.244Z,102310.19
2022-12-01T06:18:26.835Z,102303.97
2022-12-01T06:20:49.124Z,102305.19
2022-12-01T06:23:11.417Z,102309.16
2022-12-01T06:25:33.803Z,102308.06
2022-12-01T06:27:59.824Z,102310.19
2022-12-01T06:30:22.129Z,102309.16
2022-12-01T06:32:44.436Z,102306.88
2022-12-01T06:35:07.320Z,102307.00
2022-12-01T06:37:29.605Z,102311.41
2022-12-01T06:39:52.647Z,102316.25
2022-12-01T06:42:15.383Z,102321.50
2022-12-01T06:44:38.081Z,102322.53
2022-12-01T06:47:00.396Z,102317.94
2022-12-01T06:49:22.692Z,102322.94
2022-12-01T06:51:45.263Z,102322.34
2022-12-01T06:54:07.822Z,102325.06
2022-12-01T06:56:30.170Z,102326.94
2022-12-01T06:58:53.044Z,102333.00
2022-12-01T07:01:16.059Z,102329.91
2022-12-01T07:03:39.161Z,102330.53
2022-12-01T07:06:01.851Z,102329.22
2022-12-01T07:08:24.808Z,102328.38
2022-12-01T07:10:50.343Z,102334.47
2022-12-01T07:13:12.635Z,102333.19
2022-12-01T07:15:34.921Z,102331.44
2022-12-01T07:17:57.295Z,102331.03
2022-12-01T07:20:19.580Z,102334.38
2022-12-01T07:22:43.111Z,102327.25
2022-12-01T07:25:06.756Z,102326.88
2022-12-01T07:27:32.307Z,102329.16
2022-12-01T07:29:54.576Z,102333.56
2022-12-01T07:32:16.943Z,102337.94
2022-12-01T07:34:39.283Z,102343.63
2022-12-01T07:37:01.601Z,102333.09
2022-12-01T07:39:23.885Z,102339.53
2022-12-01T07:41:46.182Z,102334.06
2022-12-01T07:44:10.870Z,102336.88
2022-12-01T07:46:26.307Z,102336.44
2022-12-01T07:48:30.243Z,102330.50
2022-12-01T07:50:32.178Z,102332.19
2022-12-01T07:52:34.634Z,102334.66
2022-12-01T07:54:36.592Z,102337.56
2022-12-01T07:56:38.584Z,102332.94
2022-12-01T07:58:40.576Z,102328.28
2022-12-01T08:00:42.640Z,102334.59
2022-12-01T08:03:03.392Z,102325.34
2022-12-01T08:05:24.115Z,102328.75
2022-12-01T08:07:46.467Z,102322.84
2022-12-01T08:10:09.073Z,102335.69
2022-12-01T08:12:31.398Z,102331.28
2022-12-01T08:14:53.771Z,102336.28
2022-12-01T08:17:16.099Z,102338.41
2022-12-01T08:19:38.423Z,102337.31
2022-12-01T08:22:00.702Z,102342.31
2022-12-01T08:24:23.151Z,102339.22
2022-12-01T08:26:45.476Z,102342.13
2022-12-01T08:29:07.785Z,102337.25
2022-12-01T08:31:33.160Z,102345.22
2022-12-01T08:33:55.723Z,102339.75
2022-12-01T08:36:18.321Z,102337.41
2022-12-01T08:38:43.184Z,102339.50
2022-12-01T08:41:07.799Z,102334.81
2022-12-01T08:43:55.786Z,102334.56
2022-12-01T08:46:12.991Z,102332.59
2022-12-01T08:48:35.748Z,102340.66
2022-12-01T08:51:15.753Z,102341.63
2022-12-01T08:53:45.333Z,102329.25
2022-12-01T08:56:17.919Z,102330.47
2022-12-01T08:58:40.234Z,102337.59
2022-12-01T09:01:10.498Z,102339.72
2022-12-01T09:03:33.842Z,102337.22
2022-12-01T09:06:05.199Z,102330.22
2022-12-01T09:08:34.164Z,102337.97
2022-12-01T09:10:56.449Z,102335.47
2022-12-01T09:13:18.793Z,102340.69
2022-12-01T09:15:41.092Z,102338.78
2022-12-01T09:18:03.379Z,102334.84
2022-12-01T09:20:25.702Z,102341.06
2022-12-01T09:22:48.002Z,102337.13
2022-12-01T09:25:14.776Z,102330.13
2022-12-01T09:27:37.076Z,102332.66
2022-12-01T09:29:59.378Z,102331.34
2022-12-01T09:32:21.632Z,102330.28
2022-12-01T09:34:43.922Z,102331.94
2022-12-01T09:37:06.973Z,102329.47
2022-12-01T09:39:29.795Z,102336.34
2022-12-01T09:42:10.784Z,102330.06
2022-12-01T09:44:41.809Z,102330.28
2022-12-01T09:47:11.640Z,102338.47
2022-12-01T09:50:00.945Z,102329.00
2022-12-01T09:52:25.264Z,102328.75
2022-12-01T09:54:47.794Z,102322.69
2022-12-01T09:57:35.381Z,102328.28
2022-12-01T09:59:41.775Z,102317.59
2022-12-01T10:01:46.736Z,102318.66
2022-12-01T10:03:56.169Z,102321.00
2022-12-01T10:06:27.430Z,102321.25
2022-12-01T10:08:36.202Z,102319.81
2022-12-01T10:10:49.331Z,102323.38
2022-12-01T10:12:52.231Z,102319.22
2022-12-01T10:15:22.279Z,102315.19
2022-12-01T10:17:57.220Z,102316.69
2022-12-01T10:20:40.355Z,102313.88
2022-12-01T10:22:49.558Z,102310.09
2022-12-01T10:25:22.811Z,102305.09
2022-12-01T10:27:38.819Z,102311.16
2022-12-01T10:30:24.768Z,102308.78
2022-12-01T10:32:38.791Z,102307.59
2022-12-01T10:34:41.909Z,102299.63
2022-12-01T10:36:44.771Z,102303.78
2022-12-01T10:38:46.897Z,102306.88
2022-12-01T10:40:50.879Z,102304.75
2022-12-01T10:42:53.217Z,102305.47
2022-12-01T10:45:00.863Z,102308.41
2022-12-01T10:47:03.478Z,102300.84
2022-12-01T10:49:11.963Z,102308.31
2022-12-01T10:51:17.103Z,102304.91
2022-12-01T10:53:23.679Z,102304.44
2022-12-01T10:55:30.685Z,102298.59
2022-12-01T10:57:33.680Z,102293.00
2022-12-01T11:00:03.094Z,102303.31
2022-12-01T11:02:14.297Z,102287.31
2022-12-01T11:04:45.187Z,102296.56
2022-12-01T11:06:51.125Z,102297.38
2022-12-01T11:09:02.722Z,102285.41
2022-12-01T11:11:06.298Z,102281.63
2022-12-01T11:13:22.870Z,102289.34
2022-12-01T11:15:32.468Z,102275.44
2022-12-01T11:17:44.703Z,102274.84
2022-12-01T11:19:47.587Z,102276.16
2022-12-01T11:21:53.401Z,102279.00
2022-12-01T11:23:56.708Z,102282.56
2022-12-01T11:26:05.380Z,102272.00
2022-12-01T11:28:09.181Z,102271.53
2022-12-01T11:30:26.459Z,102262.88
2022-12-01T11:32:35.434Z,102267.22
2022-12-01T11:34:38.417Z,102268.78
2022-12-01T11:36:47.291Z,102271.53
2022-12-01T11:38:50.693Z,102269.38
2022-12-01T11:40:55.162Z,102275.06
2022-12-01T11:43:01.096Z,102275.31
2022-12-01T11:45:21.683Z,102274.25
2022-12-01T11:47:26.181Z,102273.41
2022-12-01T11:49:30.152Z,102272.59
2022-12-01T11:51:37.695Z,102275.69
2022-12-01T11:53:44.058Z,102271.06
2022-12-01T11:55:48.784Z,102272.84
2022-12-01T11:57:54.957Z,102278.91
2022-12-01T11:59:57.795Z,102267.84
2022-12-01T12:02:30.782Z,102267.50
2022-12-01T12:05:01.513Z,102259.50
2022-12-01T12:07:43.173Z,102264.50
2022-12-01T12:10:08.392Z,102264.41
2022-12-01T12:12:21.114Z,102264.78
2022-12-01T12:14:38.124Z,102253.00
2022-12-01T12:17:16.249Z,102253.09
2022-12-01T12:20:06.281Z,102247.16
2022-12-01T12:22:26.590Z,102251.47
2022-12-01T12:24:59.672Z,102248.34
2022-12-01T12:27:58.005Z,102249.31
2022-12-01T12:30:18.927Z,102257.25
2022-12-01T12:32:57.686Z,102256.47
2022-12-01T12:35:06.232Z,102251.34
2022-12-01T12:37:48.262Z,102244.22
2022-12-01T12:40:25.720Z,102252.25
2022-12-01T12:42:50.457Z,102248.00
2022-12-01T12:45:20.116Z,102245.53
2022-12-01T12:48:07.956Z,102251.56
2022-12-01T12:50:50.730Z,102241.94
2022-12-01T12:53:01.597Z,102242.06
2022-12-01T12:55:26.599Z,102245.06
2022-12-01T12:57:35.667Z,102248.63
2022-12-01T12:59:42.900Z,102244.81
2022-12-01T13:02:06.591Z,102250.88
2022-12-01T13:04:58.589Z,102249.06
2022-12-01T13:07:08.536Z,102247.06
2022-12-01T13:09:27.154Z,102250.63
2022-12-01T13:12:15.929Z,102250.16
2022-12-01T13:14:36.766Z,102247.28
2022-12-01T13:16:43.082Z,102247.63
2022-12-01T13:18:51.788Z,102249.31
2022-12-01T13:20:55.781Z,102246.34
2022-12-01T13:22:59.391Z,102239.59
2022-12-01T13:25:02.544Z,102252.06
2022-12-01T13:27:19.733Z,102249.31
2022-12-01T13:29:24.049Z,102248.84
2022-12-01T13:31:26.409Z,102252.88
2022-12-01T13:33:28.742Z,102254.19
2022-12-01T13:35:36.882Z,102243.25
2022-12-01T13:37:39.172Z,102247.06
2022-12-01T13:39:41.584Z,102253.22
2022-12-01T13:41:44.597Z,102249.41
2022-12-01T13:44:22.638Z,102253.22
2022-12-01T13:46:42.475Z,102251.09
2022-12-01T13:48:47.704Z,102246.47
2022-12-01T13:50:59.168Z,102250.38
2022-12-01T13:53:19.783Z,102252.88
2022-12-01T13:55:28.032Z,102251.00
2022-12-01T13:57:49.372Z,102251.69
2022-12-01T14:00:00.536Z,102243.38
2022-12-01T14:02:20.749Z,102248.84
2022-12-01T14:04:26.159Z,102245.28
2022-12-01T14:06:31.236Z,102252.63
2022-12-01T14:08:56.243Z,102254.53
2022-12-01T14:11:25.867Z,102251.56
2022-12-01T14:14:00.260Z,102262.38
2022-12-01T14:16:22.791Z,102256.69
2022-12-01T14:18:57.602Z,102262.97
2022-12-01T14:21:44.876Z,102259.88
2022-12-01T14:24:07.450Z,102255.00
2022-12-01T14:26:30.348Z,102261.56
2022-12-01T14:28:55.772Z,102261.56
2022-12-01T14:31:18.176Z,102265.34
2022-12-01T14:33:48.958Z,102263.56
2022-12-01T14:36:17.160Z,102262.28
2022-12-01T14:38:39.453Z,102253.00
2022-12-01T14:41:26.268Z,102245.41
2022-12-01T14:44:04.837Z,102253.63
2022-12-01T14:46:27.327Z,102249.22
2022-12-01T14:48:49.675Z,102246.59
2022-12-01T14:51:27.633Z,102241.13
2022-12-01T14:53:50.256Z,102245.75
2022-12-01T14:56:16.676Z,102245.06
2022-12-01T14:58:39.013Z,102242.19
2022-12-01T15:01:08.474Z,102236.25
2022-12-01T15:03:43.019Z,102242.31
2022-12-01T15:06:05.682Z,102241.34
2022-12-01T15:09:04.146Z,102239.22
2022-12-01T15:11:25.590Z,102231.59
2022-12-01T15:13:51.032Z,102226.88
2022-12-01T15:16:19.329Z,102226.63
2022-12-01T15:18:41.690Z,102227.81
2022-12-01T15:21:16.427Z,102229.50
2022-12-01T15:24:03.397Z,102223.19
2022-12-01T15:26:34.774Z,102223.56
2022-12-01T15:29:13.188Z,102217.25
2022-12-01T15:31:35.525Z,102226.16
2022-12-01T15:33:57.885Z,102217.00
2022-12-01T15:36:20.203Z,102222.56
2022-12-01T15:38:42.932Z,102222.81
2022-12-01T15:43:59.198Z,102225.94
2022-12-01T15:46:30.835Z,102224.84
2022-12-01T15:49:18.999Z,102233.66
2022-12-01T15:51:41.283Z,102229.59
2022-12-01T15:54:03.656Z,102236.38
2022-12-01T15:56:36.206Z,102234.72
2022-12-01T15:59:29.025Z,102227.72
2022-12-01T16:01:51.334Z,102228.56
2022-12-01T16:04:28.281Z,102228.56
2022-12-01T16:07:09.809Z,102228.56
2022-12-01T16:09:54.926Z,102228.56
2022-12-01T16:12:17.699Z,102230.19
2022-12-01T16:15:13.803Z,102232.09
2022-12-01T16:17:49.505Z,102223.88
2022-12-01T16:20:22.051Z,102226.28
2022-12-01T16:22:51.155Z,102232.56
2022-12-01T16:25:34.651Z,102229.81
2022-12-01T16:27:56.973Z,102234.97
2022-12-01T16:30:21.977Z,102226.97
2022-12-01T16:32:44.394Z,102240.88
2022-12-01T16:35:24.411Z,102231.38
2022-12-01T16:37:46.734Z,102229.50
2022-12-01T16:40:11.527Z,102233.03
2022-12-01T16:42:33.809Z,102239.94
2022-12-01T16:44:56.126Z,102235.28
2022-12-01T16:47:23.931Z,102236.97
2022-12-01T16:49:46.467Z,102239.59
2022-12-01T16:52:36.466Z,102230.78
2022-12-01T16:54:51.362Z,102232.34
2022-12-01T16:57:13.986Z,102232.34
2022-12-01T16:59:36.361Z,102227.09
2022-12-01T17:01:59.395Z,102232.56
2022-12-01T17:04:21.689Z,102231.97
2022-12-01T17:06:44.015Z,102238.03
2022-12-01T17:09:06.448Z,102231.50
2022-12-01T17:11:28.772Z,102227.69
2022-12-01T17:13:51.136Z,102234.22
2022-12-01T17:16:18.142Z,102239.06
2022-12-01T17:18:41.230Z,102231.72
2022-12-01T17:21:09.559Z,102233.13
2022-12-01T17:23:33.057Z,102239.22
2022-12-01T17:25:55.369Z,102234.59
2022-12-01T17:28:17.929Z,102234.72
2022-12-01T17:30:40.334Z,102239.22
2022-12-01T17:33:02.684Z,102235.53
2022-12-01T17:35:24.970Z,102237.53
2022-12-01T17:37:47.307Z,102240.28
2022-12-01T17:40:13.896Z,102244.91
2022-12-01T17:42:36.209Z,102242.19
2022-12-01T17:44:58.870Z,102235.66
2022-12-01T17:47:21.193Z,102228.88
2022-12-01T17:49:43.580Z,102243.47
2022-12-01T17:52:06.795Z,102238.50
2022-12-01T17:54:29.032Z,102239.19
2022-12-01T17:56:51.424Z,102235.38
2022-12-01T17:59:13.978Z,102236.34
2022-12-01T18:01:36.405Z,102231.72
2022-12-01T18:03:59.115Z,102220.78
2022-12-01T18:06:21.486Z,102238.03
2022-12-01T18:08:43.876Z,102231.25
2022-12-01T18:11:08.017Z,102233.38
2022-12-01T18:13:30.353Z,102230.88
2022-12-01T18:15:52.748Z,102237.44
2022-12-01T18:18:15.067Z,102235.53
2022-12-01T18:20:41.694Z,102230.06
2022-12-01T18:23:03.978Z,102230.28
2022-12-01T18:25:26.280Z,102240.16
2022-12-01T18:27:48.591Z,102240.00
2022-12-01T18:30:11.730Z,102239.78
2022-12-01T18:32:34.033Z,102235.16
2022-12-01T18:34:56.337Z,102235.53
2022-12-01T18:37:18.646Z,102230.06
2022-12-01T18:39:40.969Z,102237.66
2022-12-01T18:42:03.285Z,102239.31
2022-12-01T18:44:25.586Z,102228.03
2022-12-01T18:46:47.961Z,102231.13
2022-12-01T18:49:10.320Z,102229.47
2022-12-01T18:51:37.078Z,102238.28
2022-12-01T18:54:00.409Z,102237.91
2022-12-01T18:56:22.739Z,102227.34
2022-12-01T18:58:45.109Z,102229.47
2022-12-01T19:01:25.932Z,102225.06
2022-12-01T19:03:48.285Z,102227.19
2022-12-01T19:06:12.638Z,102224.00
2022-12-01T19:08:34.955Z,102221.25
2022-12-01T19:11:01.470Z,102221.63
2022-12-01T19:13:23.769Z,102229.34
2022-12-01T19:15:46.103Z,102214.09
2022-12-01T19:18:08.459Z,102218.16
2022-12-01T19:20:30.809Z,102220.19
2022-12-01T19:22:53.159Z,102214.22
2022-12-01T19:25:15.601Z,102223.25
2022-12-01T19:27:38.219Z,102228.22
2022-12-01T19:30:00.511Z,102219.81
2022-12-01T19:32:23.037Z,102216.47
2022-12-01T19:34:45.597Z,102210.53
2022-12-01T19:37:11.075Z,102210.63
2022-12-01T19:39:33.385Z,102212.31
2022-12-01T19:41:57.361Z,102209.84
2022-12-01T19:44:19.675Z,102214.22
2022-12-01T19:46:42.048Z,102213.38
2022-12-01T19:49:05.016Z,102219.09
2022-12-01T19:51:38.291Z,102208.53
2022-12-01T19:54:00.700Z,102214.22
2022-12-01T19:56:23.213Z,102215.88
2022-12-01T19:58:45.622Z,102208.16
2022-12-01T20:01:13.144Z,102209.69
2022-12-01T20:03:35.857Z,102215.88
2022-12-01T20:06:06.902Z,102219.31
2022-12-01T20:08:29.188Z,102205.31
2022-12-01T20:10:51.741Z,102207.31
2022-12-01T20:13:14.082Z,102204.84
2022-12-01T20:15:36.447Z,102209.22
2022-12-01T20:17:58.736Z,102209.22
2022-12-01T20:20:21.086Z,102209.22
2022-12-01T20:22:43.358Z,102205.06
2022-12-01T20:25:06.550Z,102208.47
2022-12-01T20:27:29.199Z,102208.25
2022-12-01T20:29:51.520Z,102212.41
2022-12-01T20:32:13.950Z,102216.56
2022-12-01T20:34:36.592Z,102204.94
2022-12-01T20:36:59.218Z,102208.84
2022-12-01T20:39:21.728Z,102201.50
2022-12-01T20:41:44.595Z,102197.34
2022-12-01T20:44:07.877Z,102214.31
2022-12-01T20:46:30.467Z,102208.25
2022-12-01T20:48:52.821Z,102200.44
2022-12-01T20:51:15.274Z,102207.56
2022-12-01T20:53:37.574Z,102200.19
2022-12-01T20:56:05.407Z,102198.75
2022-12-01T20:58:27.748Z,102204.84
2022-12-01T21:00:50.158Z,102200.81
2022-12-01T21:03:12.957Z,102200.19
2022-12-01T21:05:37.940Z,102201.03
2022-12-01T21:08:01.263Z,102197.56
2022-12-01T21:10:23.656Z,102211.56
2022-12-01T21:13:08.129Z,102200.06
2022-12-01T21:15:31.444Z,102209.56
2022-12-01T21:17:59.617Z,102203.84
2022-12-01T21:20:31.030Z,102196.75
2022-12-01T21:22:53.752Z,102199.09
2022-12-01T21:25:22.340Z,102199.22
2022-12-01T21:27:45.831Z,102196.50
2022-12-01T21:30:26.386Z,102206.22
2022-12-01T21:32:49.334Z,102201.38
2022-12-01T21:35:25.061Z,102204.56
2022-12-01T21:37:48.155Z,102202.91
2022-12-01T21:40:36.778Z,102202.53
2022-12-01T21:43:05.472Z,102194.22
2022-12-01T21:45:30.373Z,102207.97
2022-12-01T21:47:53.218Z,102204.66
2022-12-01T21:50:21.104Z,102198.84
2022-12-01T21:52:43.423Z,102203.25
2022-12-01T21:55:14.459Z,102206.56
2022-12-01T21:57:42.793Z,102205.97
2022-12-01T22:00:26.679Z,102200.63
2022-12-01T22:02:51.460Z,102196.22
2022-12-01T22:05:42.901Z,102192.22
2022-12-01T22:08:14.121Z,102178.78
2022-12-01T22:11:11.673Z,102175.69
2022-12-01T22:13:48.804Z,102185.56
2022-12-01T22:16:30.006Z,102183.03
2022-12-01T22:18:57.750Z,102184.13
2022-12-01T22:21:23.144Z,102183.28
2022-12-01T22:23:45.368Z,102171.91
2022-12-01T22:26:21.179Z,102172.38
2022-12-01T22:28:43.466Z,102167.97
2022-12-01T22:31:15.763Z,102169.03
2022-12-01T22:33:38.202Z,102170.69
2022-12-01T22:36:00.525Z,102177.22
2022-12-01T22:38:36.705Z,102177.09
2022-12-01T22:41:05.689Z,102167.59
2022-12-01T22:43:42.036Z,102176.72
2022-12-01T22:46:27.537Z,102175.41
2022-12-01T22:49:03.405Z,102173.41
2022-12-01T22:51:38.500Z,102170.41
2022-12-01T22:54:49.240Z,102173.88
2022-12-01T22:57:33.028Z,102167.31
2022-12-01T22:59:55.411Z,102162.69
2022-12-01T23:02:27.401Z,102158.19
2022-12-01T23:04:56.951Z,102157.97
2022-12-01T23:07:36.768Z,102168.97
2022-12-01T23:10:11.123Z,102162.66
2022-12-01T23:12:34.516Z,102167.06
2022-12-01T23:15:00.743Z,102165.03
2022-12-01T23:17:31.007Z,102160.63
2022-12-01T23:20:14.331Z,102162.84
2022-12-01T23:22:37.950Z,102159.53
2022-12-01T23:25:01.184Z,102159.03
2022-12-01T23:27:23.427Z,102154.63
2022-12-01T23:29:45.740Z,102151.41
2022-12-01T23:32:08.047Z,102161.75
2022-12-01T23:34:30.379Z,102161.06
2022-12-01T23:36:52.699Z,102163.78
2022-12-01T23:39:16.222Z,102156.06
2022-12-01T23:41:46.515Z,102148.34
2022-12-01T23:44:39.008Z,102155.94
2022-12-01T23:47:01.344Z,102154.16
2022-12-01T23:49:27.800Z,102158.03
2022-12-01T23:51:55.047Z,102152.81
2022-12-01T23:54:33.470Z,102147.97
2022-12-01T23:57:01.633Z,102149.13
2022-12-01T23:59:24.001Z,102147.59
